Time;durP1;ratioP1;P1;durP2;ratioP2;P2;SDS_P1;SDS_P2;PMS_P1;PMS_P2;Temp;Humidity;BMP_temperature;BMP_pressure;BME280_temperature;BME280_humidity;BME280_pressure;Samples;Min_cycle;Max_cycle;Signal;HPM_P1;HPM_P2
2024/01/03 00:00:32;;;;;;;10.17;5.93;;;;;;;5.10;100.00;99192.77;1475735;87;21472;-81
2024/01/03 00:02:58;;;;;;;10.90;5.60;;;;;;;5.11;100.00;99189.66;1477457;88;21494;-82
2024/01/03 00:05:28;;;;;;;10.43;6.70;;;;;;;5.09;100.00;99200.31;1473103;88;22278;-81
2024/01/03 00:07:54;;;;;;;14.87;7.73;;;;;;;5.10;100.00;99191.95;1466763;88;21442;-83
2024/01/03 00:10:41;;;;;;;16.00;7.53;;;;;;;5.09;100.00;99194.21;1478658;87;21534;-80
2024/01/03 00:13:48;;;;;;;10.17;6.93;;;;;;;5.08;100.00;99189.45;1473630;88;21567;-80
2024/01/03 00:16:22;;;;;;;14.53;7.37;;;;;;;5.10;100.00;99184.91;1462987;88;21791;-84
2024/01/03 00:18:57;;;;;;;14.60;9.27;;;;;;;5.11;100.00;99189.66;1471897;87;22374;-82
2024/01/03 00:21:27;;;;;;;17.60;8.43;;;;;;;5.10;100.00;99177.53;1471454;87;22429;-82
2024/01/03 00:24:09;;;;;;;15.70;7.70;;;;;;;5.11;100.00;99175.23;1479230;88;21553;-82
2024/01/03 00:26:37;;;;;;;16.90;7.83;;;;;;;5.10;100.00;99170.97;1472574;87;21317;-84
2024/01/03 00:29:07;;;;;;;12.90;6.97;;;;;;;5.08;100.00;99167.16;1474464;87;21456;-84
2024/01/03 00:31:44;;;;;;;15.97;8.27;;;;;;;5.07;100.00;99163.39;1475380;88;21412;-83
2024/01/03 00:34:25;;;;;;;17.00;8.27;;;;;;;5.06;100.00;99165.16;1474702;87;21368;-82
2024/01/03 00:36:54;;;;;;;13.58;8.10;;;;;;;5.06;100.00;99163.03;1476313;87;21419;-83
2024/01/03 00:39:34;;;;;;;13.77;8.07;;;;;;;5.01;100.00;99158.72;1473430;87;21383;-83
2024/01/03 00:42:00;;;;;;;15.40;8.23;;;;;;;5.05;100.00;99162.70;1472350;88;21479;-83
2024/01/03 00:44:26;;;;;;;16.30;9.27;;;;;;;5.04;100.00;99162.37;1472865;87;21375;-82
2024/01/03 00:46:56;;;;;;;14.90;7.73;;;;;;;5.02;100.00;99155.13;1474847;88;21412;-83
2024/01/03 00:49:23;;;;;;;25.67;9.67;;;;;;;5.01;100.00;99153.48;1472531;87;21515;-83
2024/01/03 00:51:50;;;;;;;17.80;8.83;;;;;;;5.01;100.00;99145.61;1469024;87;21295;-83
2024/01/03 00:54:19;;;;;;;18.90;8.93;;;;;;;5.00;100.00;99153.12;1471232;88;21309;-84
2024/01/03 00:56:47;;;;;;;14.97;9.00;;;;;;;5.01;100.00;99155.61;1470204;87;21272;-84
2024/01/03 00:59:14;;;;;;;18.53;9.73;;;;;;;5.00;100.00;99146.56;1460555;88;21471;-84
2024/01/03 01:01:41;;;;;;;12.00;8.80;;;;;;;4.98;100.00;99147.54;1475831;88;21584;-81
2024/01/03 01:04:08;;;;;;;17.40;8.87;;;;;;;4.98;100.00;99150.66;1467531;88;21576;-80
2024/01/03 01:06:35;;;;;;;14.63;8.00;;;;;;;4.96;100.00;99144.23;1477368;87;21375;-80
2024/01/03 01:09:03;;;;;;;16.33;9.93;;;;;;;4.95;100.00;99145.20;1480566;87;22484;-79
2024/01/03 01:11:29;;;;;;;14.23;7.60;;;;;;;4.94;100.00;99141.40;1468352;87;21391;-80
2024/01/03 01:13:56;;;;;;;16.03;8.40;;;;;;;4.94;100.00;99144.02;1475685;87;22248;-82
2024/01/03 01:16:22;;;;;;;16.97;9.53;;;;;;;4.95;100.00;99137.34;1473740;87;21530;-82
2024/01/03 01:18:48;;;;;;;15.93;7.93;;;;;;;4.96;100.00;99140.78;1472503;87;21346;-83
2024/01/03 01:21:14;;;;;;;15.13;9.00;;;;;;;4.95;100.00;99126.85;1474948;87;22278;-81
2024/01/03 01:23:42;;;;;;;14.27;8.20;;;;;;;4.96;100.00;99125.88;1473968;87;22277;-82
2024/01/03 01:26:09;;;;;;;15.23;8.97;;;;;;;4.98;100.00;99117.38;1476946;88;21471;-81
2024/01/03 01:28:35;;;;;;;20.40;8.60;;;;;;;5.00;100.00;99109.84;1459864;88;21405;-82
2024/01/03 01:31:02;;;;;;;14.90;8.50;;;;;;;5.02;100.00;99107.92;1474077;88;23281;-81
2024/01/03 01:33:28;;;;;;;12.40;7.43;;;;;;;5.04;100.00;99099.43;1476728;88;22410;-83
2024/01/03 01:35:54;;;;;;;18.93;8.13;;;;;;;5.05;100.00;99097.14;1477634;88;21458;-82
2024/01/03 01:38:20;;;;;;;14.70;9.83;;;;;;;5.08;100.00;99091.60;1474098;88;21405;-80
2024/01/03 01:40:49;;;;;;;14.10;8.30;;;;;;;5.11;100.00;99096.06;1470916;87;22221;-79
2024/01/03 01:43:15;;;;;;;14.57;8.20;;;;;;;5.13;100.00;99091.51;1470058;87;22483;-79
2024/01/03 01:45:41;;;;;;;18.87;9.40;;;;;;;5.14;100.00;99085.28;1461867;88;21470;-81
2024/01/03 01:48:09;;;;;;;14.90;8.70;;;;;;;5.16;100.00;99083.34;1475374;88;22344;-81
2024/01/03 01:50:38;;;;;;;18.57;8.10;;;;;;;5.16;100.00;99075.97;1472461;88;21405;-81
2024/01/03 01:53:06;;;;;;;15.27;8.33;;;;;;;5.18;100.00;99085.84;1470610;88;21544;-80
2024/01/03 01:55:37;;;;;;;14.20;8.70;;;;;;;5.19;100.00;99080.92;1470318;88;21427;-80
2024/01/03 01:58:05;;;;;;;16.93;8.75;;;;;;;5.19;100.00;99088.79;1471497;87;22388;-80
2024/01/03 02:00:32;;;;;;;17.10;8.87;;;;;;;5.20;100.00;99087.81;1468861;87;21441;-80
2024/01/03 02:02:58;;;;;;;14.80;8.50;;;;;;;5.21;100.00;99082.92;1477991;88;21353;-80
2024/01/03 02:05:25;;;;;;;12.40;8.27;;;;;;;5.18;100.00;99082.73;1470825;87;21578;-80
2024/01/03 02:07:51;;;;;;;15.13;9.07;;;;;;;5.22;100.00;99087.19;1470596;87;21426;-80
2024/01/03 02:10:17;;;;;;;13.47;7.87;;;;;;;5.24;100.00;99084.43;1479768;88;21434;-81
2024/01/03 02:12:43;;;;;;;16.53;7.70;;;;;;;5.26;100.00;99071.48;1476077;88;21361;-80
2024/01/03 02:15:09;;;;;;;17.10;10.40;;;;;;;5.28;100.00;99068.72;1476554;87;21648;-80
2024/01/03 02:17:38;;;;;;;14.23;9.00;;;;;;;5.29;100.00;99075.12;1473795;87;21500;-80
2024/01/03 02:20:06;;;;;;;14.50;7.97;;;;;;;5.32;100.00;99068.30;1475504;88;21435;-81
2024/01/03 02:22:32;;;;;;;17.60;8.83;;;;;;;5.34;100.00;99072.06;1466760;88;22306;-80
2024/01/03 02:24:59;;;;;;;20.23;8.47;;;;;;;5.35;100.00;99083.74;1473172;88;21449;-80
2024/01/03 02:27:26;;;;;;;14.77;8.10;;;;;;;5.37;100.00;99076.53;1467128;87;22494;-80
2024/01/03 02:29:52;;;;;;;14.80;8.70;;;;;;;5.42;100.00;99080.86;1469876;87;21391;-81
2024/01/03 02:32:18;;;;;;;13.80;9.03;;;;;;;5.43;100.00;99081.67;1458900;88;21368;-80
2024/01/03 02:34:44;;;;;;;14.67;8.83;;;;;;;5.43;100.00;99081.18;1470025;88;21383;-83
2024/01/03 02:37:12;;;;;;;13.00;7.83;;;;;;;5.45;100.00;99078.91;1471092;87;21494;-82
2024/01/03 02:39:38;;;;;;;17.60;8.90;;;;;;;5.43;100.00;99075.11;1476750;88;22291;-81
2024/01/03 02:42:04;;;;;;;17.67;9.50;;;;;;;5.41;100.00;99070.03;1471724;88;21426;-81
2024/01/03 02:44:30;;;;;;;14.90;8.90;;;;;;;5.42;100.00;99065.60;1478155;87;22270;-81
2024/01/03 02:46:56;;;;;;;14.50;8.93;;;;;;;5.40;100.00;99067.05;1471012;87;21538;-80
2024/01/03 02:49:22;;;;;;;17.30;9.40;;;;;;;5.39;100.00;99060.16;1472608;87;21515;-80
2024/01/03 02:51:52;;;;;;;16.23;8.57;;;;;;;5.36;100.00;99047.83;1474030;87;21360;-82
2024/01/03 02:54:18;;;;;;;14.20;8.70;;;;;;;5.38;100.00;99057.67;1470508;88;21494;-80
2024/01/03 02:56:44;;;;;;;15.03;8.93;;;;;;;5.35;100.00;99047.01;1475060;88;21478;-81
2024/01/03 02:59:10;;;;;;;16.27;9.80;;;;;;;5.35;100.00;99039.14;1473920;87;22372;-80
2024/01/03 03:01:36;;;;;;;13.13;7.93;;;;;;;5.34;100.00;99032.72;1476998;87;21404;-80
2024/01/03 03:04:02;;;;;;;13.23;8.63;;;;;;;5.33;100.00;99021.89;1459590;88;21493;-80
2024/01/03 03:06:28;;;;;;;17.33;9.63;;;;;;;5.32;100.00;99023.70;1471307;87;21427;-80
2024/01/03 03:08:55;;;;;;;13.83;9.17;;;;;;;5.31;100.00;99016.78;1477124;87;21559;-80
2024/01/03 03:11:21;;;;;;;19.53;10.30;;;;;;;5.30;100.00;99009.89;1479045;88;22402;-80
2024/01/03 03:13:47;;;;;;;18.97;9.23;;;;;;;5.29;100.00;99002.98;1473882;87;21353;-81
2024/01/03 03:16:13;;;;;;;15.60;8.97;;;;;;;5.30;100.00;98996.78;1478514;88;21398;-80
2024/01/03 03:18:39;;;;;;;17.60;10.80;;;;;;;5.30;100.00;98989.40;1468308;87;22225;-79
2024/01/03 03:21:06;;;;;;;18.83;9.03;;;;;;;5.30;100.00;98987.59;1471534;88;21441;-80
2024/01/03 03:23:32;;;;;;;17.40;10.70;;;;;;;5.30;100.00;98981.03;1468121;88;21404;-79
2024/01/03 03:26:01;;;;;;;15.27;9.30;;;;;;;5.31;100.00;98987.92;1471620;88;21420;-79
2024/01/03 03:28:27;;;;;;;16.73;9.60;;;;;;;5.30;100.00;98998.09;1473519;87;22255;-79
2024/01/03 03:30:53;;;;;;;17.13;9.70;;;;;;;5.30;100.00;98991.53;1471567;87;21921;-80
2024/01/03 03:33:20;;;;;;;23.07;10.57;;;;;;;5.31;100.00;98991.86;1476970;87;21397;-81
2024/01/03 03:35:46;;;;;;;14.23;8.20;;;;;;;5.30;100.00;98984.16;1473281;88;21442;-79
2024/01/03 03:38:12;;;;;;;17.53;10.80;;;;;;;5.32;100.00;98979.09;1479382;88;22277;-80
2024/01/03 03:40:38;;;;;;;14.67;9.00;;;;;;;5.32;100.00;98971.23;1473575;88;21330;-80
2024/01/03 03:43:04;;;;;;;14.83;9.83;;;;;;;5.32;100.00;98977.78;1473248;88;21605;-81
2024/01/03 03:45:31;;;;;;;20.97;9.43;;;;;;;5.34;100.00;98976.31;1473423;87;21360;-80
2024/01/03 03:47:57;;;;;;;13.77;9.47;;;;;;;5.36;100.00;98971.25;1467314;87;21331;-80
2024/01/03 03:50:24;;;;;;;23.23;9.97;;;;;;;5.37;100.00;98974.70;1475018;87;21652;-80
2024/01/03 03:52:50;;;;;;;19.73;10.37;;;;;;;5.37;100.00;98966.33;1477323;88;21390;-79
2024/01/03 03:55:16;;;;;;;16.90;9.77;;;;;;;5.39;100.00;98955.20;1469594;88;21383;-79
2024/01/03 03:57:44;;;;;;;16.70;10.47;;;;;;;5.40;100.00;98933.73;1472486;88;21426;-80
2024/01/03 04:00:12;;;;;;;16.73;10.10;;;;;;;5.39;100.00;98947.34;1471769;88;21398;-79
2024/01/03 04:02:38;;;;;;;14.90;8.83;;;;;;;5.40;100.00;98966.03;1464007;88;21537;-80
2024/01/03 04:05:05;;;;;;;18.17;10.20;;;;;;;5.41;100.00;98940.15;1470112;88;21316;-78
2024/01/03 04:07:31;;;;;;;14.13;8.10;;;;;;;5.42;100.00;98928.66;1467873;87;21346;-80
2024/01/03 04:09:58;;;;;;;17.10;9.40;;;;;;;5.42;100.00;98929.98;1470340;87;22189;-78
2024/01/03 04:12:24;;;;;;;17.47;9.20;;;;;;;5.45;100.00;98939.84;1470249;88;21368;-79
2024/01/03 04:14:50;;;;;;;15.33;8.93;;;;;;;5.45;100.00;98942.47;1471930;87;21419;-80
2024/01/03 04:17:16;;;;;;;18.43;9.87;;;;;;;5.42;100.00;98935.72;1463819;88;22336;-80
2024/01/03 04:19:42;;;;;;;15.23;8.67;;;;;;;5.42;100.00;98939.66;1447376;88;21390;-79
2024/01/03 04:22:10;;;;;;;19.53;9.60;;;;;;;5.39;100.00;98943.41;1472161;88;21530;-81
2024/01/03 04:24:36;;;;;;;15.80;8.77;;;;;;;5.42;100.00;98950.15;1473232;87;21375;-80
2024/01/03 04:27:02;;;;;;;15.90;8.67;;;;;;;5.43;100.00;98948.67;1475610;87;21308;-82
2024/01/03 04:29:28;;;;;;;18.40;10.60;;;;;;;5.46;100.00;98974.28;1473842;87;21522;-81
2024/01/03 04:31:55;;;;;;;20.10;12.30;;;;;;;5.45;100.00;98971.33;1476970;88;21346;-81
2024/01/03 04:34:21;;;;;;;22.83;11.30;;;;;;;5.44;100.00;98958.70;1470977;87;21488;-82
2024/01/03 04:36:47;;;;;;;16.73;9.10;;;;;;;5.42;100.00;98960.16;1464526;88;23122;-81
2024/01/03 04:39:13;;;;;;;14.90;8.90;;;;;;;5.43;100.00;98954.41;1468542;88;21434;-81
2024/01/03 04:41:40;;;;;;;17.17;9.30;;;;;;;5.42;100.00;98946.22;1476226;88;21396;-81
2024/01/03 04:44:07;;;;;;;18.17;10.37;;;;;;;5.42;100.00;98948.34;1462692;88;21508;-80
2024/01/03 04:46:34;;;;;;;20.57;10.30;;;;;;;5.42;100.00;98955.40;1473452;88;21360;-79
2024/01/03 04:49:00;;;;;;;21.97;8.50;;;;;;;5.44;100.00;98950.83;1471743;87;21441;-80
2024/01/03 04:51:26;;;;;;;18.83;10.67;;;;;;;5.45;100.00;98937.22;1479782;87;21412;-80
2024/01/03 04:53:52;;;;;;;16.80;10.13;;;;;;;5.47;100.00;98933.94;1472040;87;22977;-79
2024/01/03 04:56:21;;;;;;;16.47;8.97;;;;;;;5.48;100.00;98938.23;1480649;87;21479;-80
2024/01/03 04:58:47;;;;;;;15.73;9.37;;;;;;;5.48;100.00;98939.54;1471401;87;21457;-81
2024/01/03 05:01:13;;;;;;;13.90;8.70;;;;;;;5.49;100.00;98939.87;1474059;87;21397;-80
2024/01/03 05:03:39;;;;;;;18.03;9.20;;;;;;;5.51;100.00;98940.55;1463216;88;22461;-81
2024/01/03 05:06:06;;;;;;;22.00;11.40;;;;;;;5.53;100.00;98937.30;1470387;88;21405;-80
2024/01/03 05:08:32;;;;;;;12.83;8.57;;;;;;;5.55;100.00;98945.81;1481202;87;21339;-79
2024/01/03 05:10:58;;;;;;;15.27;9.17;;;;;;;5.54;100.00;98939.75;1480190;87;21338;-79
2024/01/03 05:13:25;;;;;;;15.53;9.63;;;;;;;5.57;100.00;98946.00;1477367;87;22492;-79
2024/01/03 05:15:52;;;;;;;12.70;8.00;;;;;;;5.59;100.00;98945.87;1462430;88;21560;-79
2024/01/03 05:18:18;;;;;;;15.83;9.40;;;;;;;5.60;100.00;98956.69;1473585;87;22439;-80
2024/01/03 05:20:44;;;;;;;16.53;9.50;;;;;;;5.59;100.00;98951.12;1472186;88;21376;-80
2024/01/03 05:23:12;;;;;;;15.00;7.80;;;;;;;5.62;100.00;98972.63;1480329;87;21405;-80
2024/01/03 05:25:39;;;;;;;20.73;9.80;;;;;;;5.62;100.00;98969.19;1476372;88;21797;-81
2024/01/03 05:28:06;;;;;;;15.83;8.40;;;;;;;5.63;100.00;98971.64;1477362;87;21390;-80
2024/01/03 05:30:32;;;;;;;15.70;8.67;;;;;;;5.64;100.00;98976.43;1468198;88;22225;-80
2024/01/03 05:32:58;;;;;;;19.13;8.87;;;;;;;5.63;100.00;98966.89;1466911;88;21398;-80
2024/01/03 05:35:24;;;;;;;15.43;9.27;;;;;;;5.60;100.00;98981.13;1473635;87;21426;-81
2024/01/03 05:37:52;;;;;;;16.40;8.73;;;;;;;5.58;100.00;98974.38;1474660;88;21717;-80
2024/01/03 05:40:18;;;;;;;16.60;10.97;;;;;;;5.56;100.00;98969.80;1468641;87;21375;-81
2024/01/03 05:42:44;;;;;;;18.63;9.07;;;;;;;5.56;100.00;98964.55;1455362;88;21433;-80
2024/01/03 05:45:11;;;;;;;21.20;9.53;;;;;;;5.54;100.00;98962.55;1476517;87;21405;-79
2024/01/03 05:47:37;;;;;;;16.00;8.73;;;;;;;5.55;100.00;98958.48;1474304;87;22189;-80
2024/01/03 05:50:04;;;;;;;20.20;9.30;;;;;;;5.56;100.00;98960.11;1456896;88;21441;-80
2024/01/03 05:52:30;;;;;;;17.20;9.87;;;;;;;5.54;100.00;98950.73;1477159;88;21405;-79
2024/01/03 05:55:00;;;;;;;17.67;10.00;;;;;;;5.55;100.00;98941.88;1475111;87;21367;-80
2024/01/03 05:57:25;;;;;;;17.00;8.90;;;;;;;5.55;100.00;98947.13;1478573;88;21560;-80
2024/01/03 05:59:51;;;;;;;16.07;10.10;;;;;;;5.54;100.00;98942.87;1473589;88;21368;-81
2024/01/03 06:02:17;;;;;;;19.10;9.47;;;;;;;5.55;100.00;98952.38;1476054;88;22542;-81
2024/01/03 06:04:44;;;;;;;22.93;10.03;;;;;;;5.55;100.00;98955.00;1479110;88;21500;-81
2024/01/03 06:07:10;;;;;;;17.63;10.10;;;;;;;5.56;100.00;98954.05;1476260;87;22285;-81
2024/01/03 06:09:36;;;;;;;18.97;11.10;;;;;;;5.58;100.00;98957.33;1474001;88;21420;-81
2024/01/03 06:12:03;;;;;;;21.70;11.23;;;;;;;5.58;100.00;98950.76;1472679;88;22196;-80
2024/01/03 06:14:29;;;;;;;13.70;9.60;;;;;;;5.58;100.00;98948.14;1475653;88;21370;-80
2024/01/03 06:16:55;;;;;;;14.67;8.77;;;;;;;5.59;100.00;98943.24;1474386;88;21539;-80
2024/01/03 06:19:21;;;;;;;17.13;8.67;;;;;;;5.59;100.00;98947.18;1468061;87;21397;-81
2024/01/03 06:21:48;;;;;;;16.53;8.40;;;;;;;5.60;100.00;98934.38;1474288;88;21478;-80
2024/01/03 06:24:14;;;;;;;16.10;9.30;;;;;;;5.59;100.00;98924.38;1471754;87;22395;-79
2024/01/03 06:26:40;;;;;;;16.23;8.13;;;;;;;5.60;100.00;98930.45;1467574;88;21352;-80
2024/01/03 06:29:06;;;;;;;12.37;7.30;;;;;;;5.60;100.00;98940.45;1476076;88;21375;-80
2024/01/03 06:31:32;;;;;;;16.23;9.37;;;;;;;5.61;100.00;98927.69;1466891;88;22224;-79
2024/01/03 06:33:58;;;;;;;16.63;8.73;;;;;;;5.66;100.00;98931.14;1477022;87;21442;-81
2024/01/03 06:36:25;;;;;;;13.07;6.70;;;;;;;5.66;100.00;98923.27;1482066;87;22233;-78
2024/01/03 06:38:51;;;;;;;13.67;8.50;;;;;;;5.68;100.00;98927.89;1467254;88;21516;-78
2024/01/03 06:41:18;;;;;;;16.07;7.03;;;;;;;5.70;100.00;98928.57;1471640;87;22248;-78
2024/01/03 06:43:45;;;;;;;12.33;7.67;;;;;;;5.71;100.00;98932.83;1473106;87;21412;-77
2024/01/03 06:46:11;;;;;;;13.57;7.37;;;;;;;5.71;100.00;98931.52;1463403;88;22305;-79
2024/01/03 06:48:37;;;;;;;12.93;6.97;;;;;;;5.73;100.00;98933.52;1472243;87;21331;-77
2024/01/03 06:51:04;;;;;;;12.30;6.27;;;;;;;5.73;100.00;98943.19;1473627;87;21508;-79
2024/01/03 06:53:31;;;;;;;13.90;7.43;;;;;;;5.74;100.00;98937.77;1469239;87;21346;-80
2024/01/03 06:55:58;;;;;;;15.47;7.90;;;;;;;5.76;100.00;98926.64;1469645;88;21427;-79
2024/01/03 06:58:24;;;;;;;11.77;6.40;;;;;;;5.77;100.00;98933.53;1471366;87;21413;-79
2024/01/03 07:00:50;;;;;;;18.47;9.70;;;;;;;5.80;100.00;98937.66;1473301;87;21605;-79
2024/01/03 07:03:16;;;;;;;20.47;10.97;;;;;;;5.82;100.00;98943.09;1458571;88;21645;-78
2024/01/03 07:05:42;;;;;;;32.67;17.60;;;;;;;5.86;100.00;98942.28;1471756;87;21324;-79
2024/01/03 07:08:09;;;;;;;44.20;23.10;;;;;;;5.87;100.00;98940.02;1475537;87;22425;-79
2024/01/03 07:10:36;;;;;;;25.97;11.93;;;;;;;5.88;100.00;98942.96;1474012;88;21376;-78
2024/01/03 07:13:03;;;;;;;19.63;10.93;;;;;;;5.90;100.00;98951.52;1471421;87;22285;-77
2024/01/03 07:15:31;;;;;;;32.63;12.80;;;;;;;5.92;100.00;98951.35;1474566;87;21523;-80
2024/01/03 07:17:59;;;;;;;37.73;14.10;;;;;;;5.94;100.00;98945.00;1473019;88;21382;-79
2024/01/03 07:20:26;;;;;;;34.00;14.83;;;;;;;5.96;100.00;98934.36;1462216;87;21494;-77
2024/01/03 07:22:52;;;;;;;17.97;9.87;;;;;;;5.98;100.00;98953.39;1475829;87;22373;-78
2024/01/03 07:25:18;;;;;;;37.30;16.57;;;;;;;6.00;100.00;98940.44;1471474;88;21324;-79
2024/01/03 07:27:45;;;;;;;27.67;13.00;;;;;;;6.02;100.00;98941.13;1472158;88;21398;-79
2024/01/03 07:30:12;;;;;;;26.67;10.47;;;;;;;6.05;100.00;98942.13;1469762;88;21531;-78
2024/01/03 07:32:38;;;;;;;29.93;13.93;;;;;;;6.07;100.00;98945.42;1469937;88;21512;-78
2024/01/03 07:35:06;;;;;;;28.77;12.40;;;;;;;6.10;100.00;98949.55;1474111;88;22299;-79
2024/01/03 07:37:34;;;;;;;21.90;11.93;;;;;;;6.10;100.00;98955.63;1469298;87;22314;-83
2024/01/03 07:44:00;;;;;;;14.63;7.90;;;;;;;6.15;100.00;98965.64;1477889;88;21391;-80
2024/01/03 07:46:27;;;;;;;16.63;9.23;;;;;;;6.19;100.00;98956.49;1483708;88;21479;-80
2024/01/03 07:48:53;;;;;;;21.87;12.17;;;;;;;6.21;100.00;98956.33;1472895;88;22415;-80
2024/01/03 07:51:19;;;;;;;16.80;9.43;;;;;;;6.19;100.00;98959.13;1476177;87;21472;-81
2024/01/03 07:53:45;;;;;;;13.00;7.40;;;;;;;6.22;100.00;98950.92;1473027;87;21360;-80
2024/01/03 07:56:11;;;;;;;14.17;8.30;;;;;;;6.23;100.00;98963.07;1474817;87;21597;-80
2024/01/03 07:58:38;;;;;;;24.77;13.13;;;;;;;6.25;100.00;98957.18;1474422;88;22151;-81
2024/01/03 08:01:04;;;;;;;16.70;9.57;;;;;;;6.29;100.00;98951.94;1468206;88;22433;-81
2024/01/03 08:03:31;;;;;;;17.20;8.40;;;;;;;6.29;100.00;98955.88;1470845;87;21414;-80
2024/01/03 08:05:57;;;;;;;22.63;11.10;;;;;;;6.33;100.00;98954.60;1456399;88;21405;-80
2024/01/03 08:08:23;;;;;;;25.13;11.87;;;;;;;6.36;100.00;98957.87;1473532;88;22342;-80
2024/01/03 08:10:49;;;;;;;27.03;13.80;;;;;;;6.38;100.00;98957.23;1470031;88;21280;-80
2024/01/03 08:13:16;;;;;;;18.37;10.13;;;;;;;6.41;100.00;98963.50;1477012;87;21530;-81
2024/01/03 08:15:42;;;;;;;20.60;10.90;;;;;;;6.43;100.00;98956.28;1472534;87;21420;-79
2024/01/03 08:18:09;;;;;;;23.97;12.00;;;;;;;6.43;100.00;98953.16;1468332;87;21553;-79
2024/01/03 08:20:35;;;;;;;18.50;10.50;;;;;;;6.41;100.00;98951.17;1473912;88;21360;-80
2024/01/03 08:23:02;;;;;;;17.53;8.43;;;;;;;6.42;100.00;98953.34;1475984;87;22430;-81
2024/01/03 08:25:28;;;;;;;13.43;8.30;;;;;;;6.40;100.00;98943.46;1469150;88;21472;-81
2024/01/03 08:27:54;;;;;;;14.53;7.83;;;;;;;6.38;100.00;98944.09;1471333;88;21405;-81
2024/01/03 08:30:20;;;;;;;14.07;7.63;;;;;;;6.38;100.00;98955.42;1484563;88;22344;-80
2024/01/03 08:32:46;;;;;;;15.23;8.10;;;;;;;6.37;100.00;98949.85;1475059;88;21406;-80
2024/01/03 08:35:12;;;;;;;14.10;7.07;;;;;;;6.36;100.00;98948.68;1476072;88;21389;-80
2024/01/03 08:37:43;;;;;;;18.60;8.53;;;;;;;6.32;100.00;98943.73;1469331;87;21449;-80
2024/01/03 08:40:10;;;;;;;12.77;6.53;;;;;;;6.32;100.00;98943.73;1470918;88;22893;-80
2024/01/03 08:42:36;;;;;;;12.30;6.57;;;;;;;6.31;100.00;98939.47;1471168;87;21398;-80
2024/01/03 08:45:04;;;;;;;13.67;7.97;;;;;;;6.31;100.00;98944.73;1459201;88;21384;-81
2024/01/03 08:47:30;;;;;;;11.33;6.23;;;;;;;6.32;100.00;98938.48;1479495;87;21353;-81
2024/01/03 08:49:56;;;;;;;10.80;5.27;;;;;;;6.37;100.00;98935.89;1480006;87;22211;-80
2024/01/03 08:52:22;;;;;;;9.10;6.03;;;;;;;6.41;100.00;98930.14;1467788;87;21471;-80
2024/01/03 08:54:49;;;;;;;8.57;5.67;;;;;;;6.48;100.00;98934.30;1450810;88;22359;-79
2024/01/03 08:57:15;;;;;;;15.43;7.17;;;;;;;6.50;100.00;98950.72;1476708;87;21427;-80
2024/01/03 08:59:41;;;;;;;12.10;9.03;;;;;;;6.57;100.00;98942.55;1467030;88;21426;-80
2024/01/03 09:02:07;;;;;;;9.23;6.30;;;;;;;6.58;100.00;98953.39;1472992;88;22463;-80
2024/01/03 09:04:33;;;;;;;13.27;5.60;;;;;;;6.61;100.00;98939.92;1469667;87;21516;-79
2024/01/03 09:06:59;;;;;;;13.53;8.07;;;;;;;6.65;100.00;98954.42;1472184;87;21353;-80
2024/01/03 09:09:26;;;;;;;12.20;7.33;;;;;;;6.72;100.00;98948.03;1476895;88;22219;-80
2024/01/03 09:11:52;;;;;;;11.40;6.17;;;;;;;6.78;100.00;98953.47;1465494;88;21360;-80
2024/01/03 09:14:18;;;;;;;9.53;6.10;;;;;;;6.90;100.00;98959.75;1474702;88;21324;-80
2024/01/03 09:16:45;;;;;;;16.53;7.63;;;;;;;6.95;100.00;98954.84;1474560;88;21317;-80
2024/01/03 09:19:11;;;;;;;15.00;6.33;;;;;;;7.10;100.00;98950.59;1465361;88;21280;-79
2024/01/03 09:21:45;;;;;;;13.87;6.27;;;;;;;7.18;100.00;98944.03;1470214;88;21419;-81
2024/01/03 09:24:11;;;;;;;15.63;6.63;;;;;;;7.21;100.00;98933.18;1465260;88;21353;-80
2024/01/03 09:26:39;;;;;;;13.80;5.57;;;;;;;7.28;100.00;98939.11;1472739;88;22321;-81
2024/01/03 09:29:06;;;;;;;10.70;5.80;;;;;;;7.28;100.00;98926.80;1477828;88;21538;-82
2024/01/03 09:31:33;;;;;;;10.67;4.27;;;;;;;7.32;100.00;98925.97;1473460;87;21258;-80
2024/01/03 09:33:59;;;;;;;8.93;5.90;;;;;;;7.38;100.00;98926.13;1479436;87;21796;-80
2024/01/03 09:36:26;;;;;;;8.23;5.33;;;;;;;7.40;100.00;98924.17;1470379;88;22232;-80
2024/01/03 09:38:52;;;;;;;6.87;4.50;;;;;;;7.45;100.00;98923.19;1472861;88;21390;-80
2024/01/03 09:41:18;;;;;;;6.10;4.63;;;;;;;7.57;100.00;98932.89;1472510;88;21360;-80
2024/01/03 09:43:50;;;;;;;7.60;4.60;;;;;;;7.63;100.00;98938.00;1475152;87;21493;-80
2024/01/03 09:46:16;;;;;;;11.63;5.13;;;;;;;7.78;100.00;98947.37;1477409;87;22307;-79
2024/01/03 09:48:46;;;;;;;7.03;4.33;;;;;;;7.94;100.00;98935.51;1475166;87;21517;-81
2024/01/03 09:51:11;;;;;;;9.93;4.27;;;;;;;8.20;100.00;98937.08;1479963;87;21559;-80
2024/01/03 09:53:40;;;;;;;6.83;4.40;;;;;;;8.61;100.00;98918.54;1472176;88;22175;-80
2024/01/03 09:56:07;;;;;;;9.70;5.17;;;;;;;9.43;100.00;98924.95;1477969;88;22233;-80
2024/01/03 09:58:34;;;;;;;6.53;4.43;;;;;;;9.75;100.00;98932.28;1470464;87;21494;-80
2024/01/03 10:01:01;;;;;;;6.30;3.70;;;;;;;9.71;100.00;98926.54;1472424;87;22307;-81
2024/01/03 10:03:28;;;;;;;5.03;3.13;;;;;;;9.93;100.00;98918.25;1482729;88;21405;-81
2024/01/03 10:06:13;;;;;;;6.53;3.67;;;;;;;10.09;100.00;98923.05;1470960;87;21422;-81
2024/01/03 10:08:36;;;;;;;5.37;3.23;;;;;;;10.32;100.00;98918.52;1477507;88;21354;-80
2024/01/03 10:11:20;;;;;;;5.73;4.10;;;;;;;10.77;100.00;98913.20;1469681;88;21383;-81
2024/01/03 10:13:53;;;;;;;6.60;3.53;;;;;;;11.10;100.00;98906.94;1479205;88;21302;-81
2024/01/03 10:16:28;;;;;;;5.77;3.50;;;;;;;11.16;100.00;98902.20;1469218;87;22336;-80
2024/01/03 10:19:17;;;;;;;7.07;3.77;;;;;;;11.43;100.00;98907.78;1478303;88;21376;-80
2024/01/03 10:21:53;;;;;;;5.27;3.10;;;;;;;11.40;100.00;98905.52;1471951;88;22463;-81
2024/01/03 10:24:25;;;;;;;4.13;3.17;;;;;;;11.34;100.00;98902.30;1476722;87;21435;-80
2024/01/03 10:26:52;;;;;;;6.03;4.13;;;;;;;11.43;100.00;98906.45;1462831;87;21441;-80
2024/01/03 10:29:20;;;;;;;8.30;4.83;;;;;;;11.19;100.00;98909.80;1477230;88;22432;-80
2024/01/03 10:31:47;;;;;;;6.27;4.00;;;;;;;11.33;100.00;98916.02;1468768;88;21449;-82
2024/01/03 10:34:22;;;;;;;6.57;4.03;;;;;;;11.29;100.00;98911.62;1473256;88;21309;-81
2024/01/03 10:36:49;;;;;;;7.27;4.17;;;;;;;11.27;100.00;98913.63;1460637;88;22299;-82
2024/01/03 10:39:18;;;;;;;7.00;3.83;;;;;;;11.25;100.00;98913.53;1476675;88;21353;-81
2024/01/03 10:41:47;;;;;;;6.03;2.80;;;;;;;11.15;100.00;98905.06;1479977;87;21301;-80
2024/01/03 10:44:16;;;;;;;4.97;3.20;;;;;;;11.06;100.00;98905.69;1474884;87;21590;-80
2024/01/03 10:46:47;;;;;;;8.17;4.00;;;;;;;11.16;100.00;98898.23;1476480;87;21517;-83
2024/01/03 10:49:15;;;;;;;4.43;2.77;;;;;;;11.05;100.00;98893.46;1486815;87;21501;-79
2024/01/03 10:51:44;;;;;;;4.07;3.00;;;;;;;10.82;100.00;98909.50;1474495;87;21568;-81
2024/01/03 10:54:15;;;;;;;5.47;3.30;;;;;;;10.95;100.00;98890.29;1474232;88;21474;-80
2024/01/03 10:56:53;;;;;;;5.10;2.93;;;;;;;11.01;100.00;98890.86;1481747;88;21539;-80
2024/01/03 10:59:23;;;;;;;5.40;2.97;;;;;;;11.24;100.00;98894.66;1470524;87;22388;-81
2024/01/03 11:02:08;;;;;;;;;;;;;;;11.06;100.00;98884.50;1467617;87;21390;-81
2024/01/03 11:04:58;;;;;;;5.67;3.57;;;;;;;10.95;100.00;98879.70;1467131;88;20498;-77
2024/01/03 11:07:39;;;;;;;5.95;3.58;;;;;;;10.93;100.00;98874.58;1479158;88;21390;-80
2024/01/03 11:10:06;;;;;;;5.67;3.67;;;;;;;11.01;100.00;98880.27;1468788;88;22322;-81
2024/01/03 11:12:33;;;;;;;7.77;4.03;;;;;;;11.06;100.00;98883.17;1470805;87;21324;-81
2024/01/03 11:15:23;;;;;;;5.63;3.73;;;;;;;11.05;100.00;98880.23;1467249;88;22313;-80
2024/01/03 11:17:50;;;;;;;;;;;;;;;11.13;100.00;98884.05;1446053;90;21400;-78
2024/01/03 11:20:24;;;;;;;8.40;3.53;;;;;;;11.07;100.00;98879.52;1429834;91;20264;-77
2024/01/03 11:23:00;;;;;;;6.40;4.00;;;;;;;11.07;100.00;98886.13;1439478;91;22560;-77
2024/01/03 11:25:48;;;;;;;7.20;4.20;;;;;;;11.03;100.00;98876.94;1422960;91;21532;-80
2024/01/03 11:28:32;;;;;;;5.77;3.70;;;;;;;10.88;100.00;98862.44;1439282;90;21460;-78
2024/01/03 11:31:00;;;;;;;5.73;3.43;;;;;;;10.99;100.00;98884.92;1437636;91;21617;-79